Latest Weather Observations for Cape Nelson

IDV60801

Issued at 10:32 am EDT Monday 27 February 2017 (issued every 30 minutes, with the page automatically refreshed every 10 minutes)

About weather observations | Map of weather stations | Latest weather observations for VIC | Other Formats
Station Details ID: 090184 Name: CAPE NELSON LIGHTHOUSE Lat: -38.43 Lon: 141.54 Height: 45.4 m
Data from the previous 72 hours. | See also: Recent months at Cape Nelson
Date/Time
EDT
Temp
°C
App
Temp
°C
Dew
Point
°C
Rel
Hum
%
Delta-T
°C
Wind Press
QNH
hPa
Press
MSL
hPa
Rain since
9am
mm
Dir  Spd
km/h
Gust
km/h
Spd
kts
Gust
kts
27/10:30am 20.7 20.2 15.9 74 2.9 ENE 13 19 7 10 1020.9 1020.8 0.0
27/10:00am 20.4 20.1 16.4 78 2.4 E 13 19 7 10 1021.0 1020.9 0.0
27/09:30am 19.5 19.0 16.0 80 2.1 ENE 13 17 7 9 1020.8 1020.7 0.0
27/09:00am 19.0 19.7 16.0 83 1.8 E 7 9 4 5 1020.8 1020.7 0.0
27/08:30am 17.8 18.5 15.6 87 1.3 NE 6 15 3 8 1020.5 1020.4 0.0
27/08:00am 16.4 17.1 14.6 89 1.0 NNE 4 9 2 5 1020.5 1020.4 0.0
27/07:30am 16.2 16.0 14.6 90 0.9 N 9 15 5 8 1020.2 1020.1 0.0
27/07:00am 16.0 13.6 14.4 90 0.9 NNE 20 28 11 15 1019.5 1019.4 0.0
27/06:30am 16.1 13.0 14.5 90 0.9 NE 24 32 13 17 1019.2 1019.1 0.0
27/06:00am 16.3 12.9 14.7 90 0.9 NE 26 32 14 17 1019.1 1019.0 0.0
27/05:30am 16.6 14.0 15.0 90 0.9 NE 22 30 12 16 1019.1 1019.0 0.0
27/05:00am 16.6 14.1 15.1 91 0.9 NE 22 26 12 14 1019.0 1018.9 0.0
27/04:30am 16.7 14.3 15.4 92 0.8 NE 22 28 12 15 1019.0 1018.9 0.0
27/04:00am 17.2 15.6 16.1 93 0.6 NE 19 24 10 13 1019.2 1019.1 0.0
27/03:30am 17.3 15.8 16.2 93 0.7 NE 19 22 10 12 1019.5 1019.4 0.0
27/03:00am 17.2 16.0 16.1 93 0.6 NE 17 20 9 11 1019.5 1019.4 0.0
27/02:30am 17.0 16.0 15.7 92 0.8 ENE 15 19 8 10 1019.7 1019.6 0.0
27/02:00am 16.8 16.1 15.5 92 0.8 ENE 13 17 7 9 1019.9 1019.8 0.0
27/01:30am 16.8 16.5 15.5 92 0.8 ENE 11 13 6 7 1020.1 1020.0 0.0
27/01:00am 17.1 16.2 15.8 92 0.8 ENE 15 17 8 9 1020.1 1020.0 0.0
27/12:30am 17.2 16.6 15.7 91 0.9 E 13 15 7 8 1020.3 1020.2 0.0
27/12:00am 17.1 16.9 15.6 91 0.9 E 11 13 6 7 1020.4 1020.3 0.0
 
Date/Time
EDT
Temp
°C
App
Temp
°C
Dew
Point
°C
Rel
Hum
%
Delta-T
°C
Wind Press
QNH
hPa
Press
MSL
hPa
Rain since
9am
mm
Dir  Spd
km/h
Gust
km/h
Spd
kts
Gust
kts
26/11:30pm 17.0 16.3 15.3 90 1.0 E 13 15 7 8 1020.5 1020.4 0.0
26/11:00pm 17.2 16.2 15.5 90 1.0 ENE 15 20 8 11 1020.5 1020.4 0.0
26/10:30pm 17.2 16.2 15.5 90 1.0 ENE 15 19 8 10 1020.5 1020.4 0.0
26/10:00pm 17.2 16.2 15.5 90 1.0 E 15 19 8 10 1020.5 1020.4 0.0
26/09:30pm 17.3 16.3 15.5 89 1.1 ENE 15 19 8 10 1020.5 1020.4 0.0
26/09:00pm 17.3 16.6 15.3 88 1.2 E 13 17 7 9 1020.1 1020.0 0.0
26/08:30pm 17.6 16.5 15.4 87 1.3 E 15 19 8 10 1019.9 1019.8 0.0
26/08:00pm 18.0 17.3 15.3 84 1.6 E 13 17 7 9 1019.8 1019.7 0.0
26/07:30pm 18.6 17.6 15.5 82 1.8 E 15 19 8 10 1019.7 1019.6 0.0
26/07:00pm 19.1 17.8 15.8 81 2.0 E 17 20 9 11 1019.5 1019.4 0.0
26/06:30pm 19.4 18.1 15.9 80 2.1 E 17 20 9 11 1019.4 1019.3 0.0
26/06:00pm 19.7 18.0 15.8 78 2.3 E 19 22 10 12 1019.2 1019.1 0.0
26/05:30pm 20.2 19.2 15.6 75 2.7 ESE 15 22 8 12 1019.2 1019.1 0.0
26/05:00pm 20.7 20.1 15.7 73 3.0 ESE 13 20 7 11 1019.2 1019.1 0.0
26/04:30pm 20.8 19.8 15.6 72 3.1 ESE 15 22 8 12 1019.4 1019.3 0.0
26/04:00pm 20.6 19.6 15.6 73 3.0 SE 15 22 8 12 1019.7 1019.6 0.0
26/03:30pm 20.7 19.7 15.5 72 3.1 SE 15 22 8 12 1019.8 1019.7 0.0
26/03:00pm 20.4 18.5 15.2 72 3.1 SE 19 26 10 14 1020.1 1020.0 0.0
26/02:30pm 20.4 18.7 14.7 70 3.3 ESE 17 26 9 14 1020.3 1020.2 0.0
26/02:00pm 20.7 19.6 15.3 71 3.2 ESE 15 24 8 13 1020.5 1020.4 0.0
26/01:30pm 20.3 18.4 15.3 73 3.0 ESE 19 26 10 14 1020.8 1020.7 0.0
26/01:00pm 20.1 18.0 15.3 74 2.8 E 20 26 11 14 1021.0 1020.9 0.0
26/12:30pm 19.5 16.6 15.0 75 2.6 E 24 32 13 17 1021.4 1021.3 0.0
26/12:00pm 18.6 15.8 15.3 81 1.9 E 24 30 13 16 1021.6 1021.5 0.0
26/11:30am 18.3 16.2 15.2 82 1.8 ESE 20 30 11 16 1021.8 1021.7 0.0
26/11:00am 18.5 16.7 15.4 82 1.8 ESE 19 28 10 15 1022.0 1021.9 0.0
26/10:30am 18.3 16.3 15.4 83 1.7 ESE 20 28 11 15 1021.9 1021.8 0.0
26/10:00am 17.8 14.9 15.1 84 1.6 E 24 32 13 17 1022.1 1022.0 0.0
26/09:30am 17.6 15.0 15.0 85 1.5 ESE 22 32 12 17 1021.8 1021.7 0.0
26/09:00am 18.0 14.5 15.4 85 1.5 E 28 35 15 19 1021.8 1021.7 0.0
26/08:30am 17.6 14.0 15.2 86 1.4 E 28 33 15 18 1021.8 1021.7 0.0
26/08:00am 17.0 12.4 15.0 88 1.2 E 33 41 18 22 1021.7 1021.6 0.0
26/07:30am 16.8 12.1 14.8 88 1.2 E 33 41 18 22 1021.7 1021.6 0.0
26/07:00am 16.6 11.8 14.6 88 1.1 E 33 41 18 22 1021.3 1021.2 0.0
26/06:30am 16.6 12.8 14.6 88 1.1 E 28 37 15 20 1021.3 1021.2 0.0
26/06:00am 16.6 13.8 14.4 87 1.3 ESE 22 35 12 19 1021.2 1021.1 0.0
26/05:30am 16.6 13.5 14.4 87 1.3 ESE 24 35 13 19 1021.3 1021.2 0.0
26/05:00am 16.5 13.7 14.2 86 1.3 ESE 22 32 12 17 1021.2 1021.1 0.0
26/04:30am 16.5 14.0 14.2 86 1.3 ESE 20 30 11 16 1021.6 1021.5 0.0
26/04:00am 16.3 13.0 14.0 86 1.3 ESE 24 33 13 18 1021.6 1021.5 0.0
26/03:30am 16.0 13.9 13.7 86 1.3 ESE 17 28 9 15 1021.7 1021.6 0.0
26/03:00am 15.8 12.3 13.5 86 1.3 ESE 24 35 13 19 1022.0 1021.9 0.0
26/02:30am 15.8 13.0 13.1 84 1.5 ESE 20 32 11 17 1022.3 1022.2 0.0
26/02:00am 15.9 12.3 13.2 84 1.5 SE 24 37 13 20 1022.9 1022.8 0.0
26/01:30am 15.8 11.5 13.1 84 1.5 SE 28 43 15 23 1023.2 1023.1 0.0
26/01:00am 15.8 11.4 12.9 83 1.6 SE 28 39 15 21 1023.3 1023.2 0.0
26/12:30am 15.7 10.4 12.6 82 1.7 SE 32 43 17 23 1023.8 1023.7 0.0
26/12:00am 15.1 9.4 11.9 81 1.7 SE 33 44 18 24 1024.3 1024.2 0.0
 
Date/Time
EDT
Temp
°C
App
Temp
°C
Dew
Point
°C
Rel
Hum
%
Delta-T
°C
Wind Press
QNH
hPa
Press
MSL
hPa
Rain since
9am
mm
Dir  Spd
km/h
Gust
km/h
Spd
kts
Gust
kts
25/11:30pm 15.4 9.9 12.0 80 1.8 SE 32 44 17 24 1024.3 1024.2 0.0
25/11:00pm 15.3 9.5 11.5 78 2.0 SE 33 44 18 24 1024.9 1024.8 0.0
25/10:30pm 15.3 9.6 11.3 77 2.1 SE 32 43 17 23 1024.9 1024.8 0.0
25/10:00pm 15.1 9.6 10.7 75 2.3 SE 30 41 16 22 1024.9 1024.8 0.0
25/09:30pm 14.8 9.2 10.0 73 2.5 SE 30 43 16 23 1024.9 1024.8 0.0
25/09:00pm 14.7 9.0 9.7 72 2.6 SSE 30 41 16 22 1024.9 1024.8 0.0
25/08:30pm 14.8 9.8 9.6 71 2.7 SE 26 37 14 20 1025.0 1024.9 0.0
25/08:00pm 14.8 9.0 9.4 70 2.8 SE 30 39 16 21 1025.0 1024.9 0.0
25/07:30pm 14.7 9.2 9.1 69 2.9 SE 28 39 15 21 1024.8 1024.7 0.0
25/07:00pm 15.1 9.8 8.3 64 3.4 SE 26 35 14 19 1024.9 1024.8 0.0
25/06:30pm 15.1 10.1 8.1 63 3.5 SE 24 35 13 19 1024.9 1024.8 0.0
25/06:00pm 15.4 9.5 7.4 59 3.9 SE 28 37 15 20 1025.0 1024.9 0.0
25/05:30pm 15.5 10.4 7.5 59 4.0 SE 24 33 13 18 1024.9 1024.8 0.0
25/05:00pm 15.8 9.7 8.3 61 3.8 SE 30 41 16 22 1025.1 1025.0 0.0
25/04:30pm 16.3 10.7 8.8 61 3.9 SE 28 37 15 20 1025.4 1025.3 0.0
25/04:00pm 16.7 11.3 8.1 57 4.3 SSE 26 35 14 19 1025.6 1025.5 0.0
25/03:30pm 16.8 11.3 9.2 61 3.9 SSE 28 37 15 20 1025.8 1025.7 0.0
25/03:00pm 17.3 11.9 7.9 54 4.7 SSE 26 32 14 17 1026.1 1026.1 0.0
25/02:30pm 17.4 11.5 7.5 52 5.0 SSE 28 35 15 19 1026.4 1026.4 0.0
25/02:00pm 16.8 10.6 8.0 56 4.4 SE 30 41 16 22 1026.5 1026.5 0.0
25/01:30pm 16.7 11.0 8.4 58 4.2 SE 28 35 15 19 1026.7 1026.6 0.0
25/01:00pm 17.5 12.6 8.4 55 4.6 SE 24 32 13 17 1026.8 1026.7 0.0
25/12:30pm 17.2 12.5 7.8 54 4.8 SE 22 32 12 17 1027.1 1027.0 0.0
25/12:00pm 17.2 12.1 7.5 53 4.9 SE 24 33 13 18 1027.3 1027.2 0.0
25/11:30am 16.8 11.4 8.0 56 4.5 SE 26 39 14 21 1027.3 1027.2 0.0
25/11:00am 16.3 9.6 8.0 58 4.2 SE 33 44 18 24 1027.3 1027.2 0.0
25/10:30am 15.8 9.7 8.3 61 3.8 SE 30 41 16 22 1027.4 1027.3 0.0
25/10:00am 15.2 10.1 9.1 67 3.1 SE 26 35 14 19 1026.9 1026.8 0.0
25/09:30am 15.9 11.0 8.4 61 3.8 SE 24 32 13 17 1027.1 1027.0 0.0
25/09:00am 15.4 9.6 7.9 61 3.7 SSE 28 37 15 20 1027.4 1027.3 0.0
25/08:30am 14.9 8.7 7.7 62 3.6 SSE 30 41 16 22 1027.3 1027.2 0.0
25/08:00am 14.3 7.6 7.4 63 3.4 SSE 32 41 17 22 1027.0 1026.9 0.0
25/07:30am 14.4 8.0 8.4 67 3.0 SE 32 39 17 21 1026.7 1026.6 0.0
25/07:00am 14.6 9.1 9.2 70 2.7 SE 28 37 15 20 1026.2 1026.2 0.0
25/06:30am 14.6 9.1 9.2 70 2.8 SE 28 39 15 21 1026.0 1026.0 0.0
25/06:00am 14.8 9.5 9.8 72 2.6 SE 28 39 15 21 1025.9 1025.9 0.0
25/05:30am 15.1 10.6 9.9 71 2.7 SE 24 32 13 17 1025.8 1025.7 0.0
25/05:00am 15.1 9.6 9.2 68 3.0 SSE 28 37 15 20 1025.9 1025.9 0.0
25/04:30am 15.0 10.0 9.6 70 2.8 SE 26 37 14 20 1025.8 1025.7 0.0
25/04:00am 15.1 10.1 9.7 70 2.8 SE 26 33 14 18 1025.8 1025.7 0.0
25/03:30am 15.2 11.0 9.6 69 2.9 SE 22 32 12 17 1026.0 1026.0 0.0
25/03:00am 15.0 10.3 9.4 69 2.9 SE 24 35 13 19 1026.2 1026.2 0.0
25/02:30am 15.3 11.6 10.1 71 2.7 SE 20 30 11 16 1026.4 1026.4 0.0
25/02:00am 15.2 11.5 10.2 72 2.6 SSE 20 28 11 15 1026.4 1026.4 0.0
25/01:30am 15.5 13.0 10.9 74 2.5 SSE 15 20 8 11 1026.8 1026.7 0.0
25/01:00am 15.5 13.0 10.9 74 2.4 SE 15 22 8 12 1027.0 1026.9 0.0
25/12:30am 15.5 12.1 10.7 73 2.5 SE 19 24 10 13 1027.2 1027.1 0.0
25/12:00am 15.2 11.6 10.4 73 2.5 SSE 20 26 11 14 1027.1 1027.0 0.0
 
Date/Time
EDT
Temp
°C
App
Temp
°C
Dew
Point
°C
Rel
Hum
%
Delta-T
°C
Wind Press
QNH
hPa
Press
MSL
hPa
Rain since
9am
mm
Dir  Spd
km/h
Gust
km/h
Spd
kts
Gust
kts
24/11:30pm 15.6 12.4 11.4 76 2.3 SE 19 24 10 13 1027.2 1027.1 0.0
24/11:00pm 15.9 12.6 11.5 75 2.4 SE 20 30 11 16 1027.2 1027.1 0.0
24/10:30pm 15.6 10.8 10.4 71 2.7 SSE 26 32 14 17 1027.3 1027.2 0.0
24/10:00pm 15.8 12.0 11.2 74 2.5 SSE 22 28 12 15 1027.3 1027.2 0.0
24/09:30pm 15.8 12.3 11.0 73 2.6 SSE 20 28 11 15 1027.2 1027.1 0.0
24/09:00pm 15.9 12.1 11.1 73 2.6 SSE 22 28 12 15 1027.0 1026.9 0.0
24/08:30pm 16.1 12.9 11.1 72 2.7 S 19 28 10 15 1026.8 1026.7 0.0
24/08:00pm 16.1 12.5 10.6 70 2.9 S 20 28 11 15 1026.8 1026.7 0.0
24/07:30pm 16.3 13.3 10.6 69 3.0 S 17 22 9 12 1026.7 1026.6 0.0
24/07:00pm 16.8 14.1 10.4 66 3.4 S 15 19 8 10 1026.5 1026.5 0.0
24/06:30pm 17.6 14.9 10.5 63 3.8 S 15 20 8 11 1026.5 1026.5 0.0
24/06:00pm 17.7 15.1 10.8 64 3.7 S 15 20 8 11 1026.4 1026.4 0.0
24/05:30pm 17.6 15.5 11.2 66 3.5 S 13 20 7 11 1026.4 1026.4 0.0
24/05:00pm 17.1 14.6 11.2 68 3.2 S 15 19 8 10 1026.3 1026.3 0.0
24/04:30pm 15.8 11.9 10.8 72 2.7 S 22 32 12 17 1026.4 1026.4 0.0
24/04:00pm 17.2 13.8 10.6 65 3.5 S 19 22 10 12 1026.3 1026.3 0.0
24/03:30pm 18.6 15.8 11.2 62 4.0 S 17 24 9 13 1026.5 1026.5 0.0
24/03:00pm 18.2 15.0 9.8 58 4.4 S 17 24 9 13 1026.7 1026.6 0.0
24/02:30pm 18.1 13.8 9.2 56 4.7 S 22 28 12 15 1026.8 1026.7 0.0
24/02:00pm 17.3 13.4 9.5 60 4.1 S 20 28 11 15 1026.9 1026.8 0.0
24/01:30pm 18.2 14.6 9.8 58 4.5 S 19 24 10 13 1026.9 1026.8 0.0
24/01:00pm 17.9 14.0 8.7 55 4.7 S 19 30 10 16 1027.0 1026.9 0.0
24/12:30pm 17.1 13.0 8.8 58 4.3 S 20 30 11 16 1027.1 1027.0 0.0
24/12:00pm 16.8 12.9 8.5 58 4.2 S 19 28 10 15 1027.2 1027.1 0.0
24/11:30am 17.0 14.2 8.7 58 4.3 E 13 22 7 12 1027.0 1026.9 0.0
24/11:00am 16.5 13.5 9.2 62 3.8 SSE 15 28 8 15 1026.8 1026.7 0.0

Other Formats:

Comma delimited format used in spreadsheet applications
http://www.bom.gov.au/fwo/IDV60801/IDV60801.94826.axf

JavaScript Object Notation format (JSON) in row-major order
http://www.bom.gov.au/fwo/IDV60801/IDV60801.94826.json